Weather at Ivalo Airport

Public forecast

Using degrees Celsius for public forecast. Weather courtesy of forecast.io.

Current aviation weather report (METAR) for Ivalo Airport

Retrieved 2021/10/20 10:20 UTC (16 minutes ago):

EFIV 201020Z AUTO 04003KT 360V070 CAVOK M06/M07 Q0999

Aviation forecast (TAF) for Ivalo Airport

Forecast is more than 12 hours old.

Retrieved 2016/01/04 03:42 UTC (6 years ago):

TAF EFIV 040236Z 0403/0415 16004KT CAVOK PROB40 0403/0409 7000 -SN BKN008